createdAt,value
2019-02-19T00:00:25.841Z,100.23
2019-02-19T00:02:56.157Z,101.63
2019-02-19T00:05:26.431Z,100.23
2019-02-19T00:07:56.702Z,102.67
2019-02-19T00:10:26.974Z,93.13
2019-02-19T00:12:57.260Z,91.00
2019-02-19T00:15:27.530Z,93.97
2019-02-19T00:17:57.818Z,92.53
2019-02-19T00:20:28.257Z,94.30
2019-02-19T00:22:58.553Z,90.50
2019-02-19T00:25:28.825Z,104.03
2019-02-19T00:27:59.121Z,101.13
2019-02-19T00:30:29.568Z,103.33
2019-02-19T00:32:59.852Z,91.73
2019-02-19T00:35:30.146Z,98.27
2019-02-19T00:38:00.498Z,95.67
2019-02-19T00:40:30.803Z,98.53
2019-02-19T00:43:01.125Z,93.53
2019-02-19T00:45:31.399Z,86.17
2019-02-19T00:48:01.688Z,89.60
2019-02-19T00:50:32.310Z,97.37
2019-02-19T00:53:02.605Z,92.67
2019-02-19T00:55:34.230Z,98.67
2019-02-19T00:58:04.494Z,105.07
2019-02-19T01:00:34.768Z,101.63
2019-02-19T01:03:05.166Z,112.30
2019-02-19T01:05:35.468Z,102.33
2019-02-19T01:08:05.762Z,110.70
2019-02-19T01:10:36.058Z,99.77
2019-02-19T01:13:06.392Z,106.50
2019-02-19T01:15:36.685Z,96.63
2019-02-19T01:18:07.345Z,94.83
2019-02-19T01:20:37.637Z,92.50
2019-02-19T01:23:07.898Z,98.10
2019-02-19T01:25:38.212Z,102.40
2019-02-19T01:28:08.497Z,90.40
2019-02-19T01:30:38.798Z,102.57
2019-02-19T01:33:09.107Z,103.77
2019-02-19T01:35:39.407Z,102.37
2019-02-19T01:38:09.687Z,105.67
2019-02-19T01:40:39.975Z,105.43
2019-02-19T01:43:10.281Z,103.80
2019-02-19T01:45:40.574Z,99.23
2019-02-19T01:48:10.926Z,110.17
2019-02-19T01:50:41.196Z,101.00
2019-02-19T01:53:11.522Z,105.87
2019-02-19T01:55:41.825Z,106.57
2019-02-19T01:58:12.226Z,109.63
2019-02-19T02:00:42.518Z,111.60
2019-02-19T02:03:12.816Z,114.90
2019-02-19T02:05:43.104Z,113.77
2019-02-19T02:08:13.836Z,142.77
2019-02-19T02:10:44.182Z,118.17
2019-02-19T02:13:14.524Z,115.87
2019-02-19T02:15:44.800Z,102.27
2019-02-19T02:18:15.095Z,109.87
2019-02-19T02:20:45.427Z,108.83
2019-02-19T02:23:15.707Z,103.93
2019-02-19T02:25:45.974Z,100.50
2019-02-19T02:28:16.341Z,98.27
2019-02-19T02:30:46.613Z,94.63
2019-02-19T02:33:16.910Z,100.10
2019-02-19T02:35:47.200Z,96.10
2019-02-19T02:38:17.545Z,102.83
2019-02-19T02:40:47.808Z,100.40
2019-02-19T02:43:18.108Z,102.43
2019-02-19T02:45:53.381Z,93.03
2019-02-19T02:48:23.305Z,96.87
2019-02-19T02:50:53.595Z,89.30
2019-02-19T02:53:23.887Z,95.63
2019-02-19T02:55:54.184Z,91.07
2019-02-19T02:58:24.518Z,95.77
2019-02-19T03:00:54.809Z,91.57
2019-02-19T03:03:25.103Z,90.03
2019-02-19T03:06:01.427Z,85.13
2019-02-19T03:08:32.691Z,92.57
2019-02-19T03:11:02.974Z,92.17
2019-02-19T03:13:33.291Z,90.50
2019-02-19T03:16:03.584Z,98.83
2019-02-19T03:18:34.623Z,89.73
2019-02-19T03:21:04.902Z,98.47
2019-02-19T03:23:35.224Z,89.80
2019-02-19T03:26:05.493Z,98.37
2019-02-19T03:28:35.795Z,92.83
2019-02-19T03:31:06.085Z,80.33
2019-02-19T03:33:37.339Z,82.63
2019-02-19T03:36:07.622Z,82.60
2019-02-19T03:38:37.909Z,86.83
2019-02-19T03:41:08.311Z,84.13
2019-02-19T03:43:38.583Z,93.43
2019-02-19T03:46:12.113Z,82.47
2019-02-19T03:48:40.843Z,88.17
2019-02-19T03:51:12.256Z,87.80
2019-02-19T03:53:42.544Z,82.70
2019-02-19T03:56:12.832Z,82.63
2019-02-19T03:58:43.130Z,79.53
2019-02-19T04:01:13.401Z,82.63
2019-02-19T04:03:43.754Z,71.40
2019-02-19T04:06:14.036Z,86.13
2019-02-19T04:08:44.361Z,75.03
2019-02-19T04:11:14.647Z,77.27
2019-02-19T04:13:44.896Z,80.27
2019-02-19T04:16:21.338Z,84.50
2019-02-19T04:18:48.242Z,90.57
2019-02-19T04:21:18.540Z,85.70
2019-02-19T04:23:48.841Z,113.07
2019-02-19T04:26:19.130Z,91.00
2019-02-19T04:28:49.401Z,105.60
2019-02-19T04:31:19.674Z,90.33
2019-02-19T04:33:49.937Z,85.67
2019-02-19T04:36:20.208Z,102.27
2019-02-19T04:38:50.509Z,99.07
2019-02-19T04:41:20.782Z,102.13
2019-02-19T04:43:51.079Z,83.10
2019-02-19T04:46:30.833Z,83.40
2019-02-19T04:48:53.340Z,91.83
2019-02-19T04:51:23.635Z,75.90
2019-02-19T04:53:53.947Z,84.43
2019-02-19T04:56:24.492Z,71.47
2019-02-19T04:58:54.774Z,78.30
2019-02-19T05:01:25.071Z,82.00
2019-02-19T05:03:56.902Z,84.73
2019-02-19T05:06:27.202Z,76.00
2019-02-19T05:08:57.929Z,70.33
2019-02-19T05:11:28.688Z,66.00
2019-02-19T05:13:59.012Z,70.63
2019-02-19T05:16:29.285Z,62.43
2019-02-19T05:18:59.628Z,63.03
2019-02-19T05:21:29.960Z,63.20
2019-02-19T05:24:00.317Z,62.73
2019-02-19T05:26:30.632Z,68.23
2019-02-19T05:29:01.034Z,63.73
2019-02-19T05:31:31.313Z,66.07
2019-02-19T05:34:02.731Z,68.43
2019-02-19T05:36:33.082Z,76.87
2019-02-19T05:39:04.860Z,84.23
2019-02-19T05:41:36.066Z,111.17
2019-02-19T05:44:06.626Z,99.73
2019-02-19T05:46:36.962Z,95.60
2019-02-19T05:49:07.294Z,97.43
2019-02-19T05:51:37.559Z,119.57
2019-02-19T05:54:07.859Z,112.77
2019-02-19T05:56:38.144Z,90.33
2019-02-19T05:59:08.492Z,97.83
2019-02-19T06:01:39.041Z,96.50
2019-02-19T06:04:09.332Z,86.23
2019-02-19T06:06:39.711Z,93.33
2019-02-19T06:09:10.023Z,92.50
2019-02-19T06:11:40.445Z,88.47
2019-02-19T06:14:10.736Z,73.20
2019-02-19T06:16:41.056Z,79.43
2019-02-19T06:19:11.958Z,86.33
2019-02-19T06:21:42.246Z,83.93
2019-02-19T06:24:12.569Z,91.40
2019-02-19T06:26:43.257Z,81.73
2019-02-19T06:29:13.547Z,78.43
2019-02-19T06:31:43.850Z,87.23
2019-02-19T06:34:14.398Z,82.73
2019-02-19T06:36:45.006Z,81.17
2019-02-19T06:39:15.466Z,81.40
2019-02-19T06:41:46.114Z,82.10
2019-02-19T06:44:16.364Z,93.27
2019-02-19T06:46:47.656Z,97.80
2019-02-19T06:49:17.975Z,107.63
2019-02-19T06:51:49.418Z,102.00
2019-02-19T06:54:19.719Z,111.90
2019-02-19T06:56:50.013Z,111.33
2019-02-19T06:59:20.289Z,111.43
2019-02-19T07:02:10.808Z,102.37
2019-02-19T07:04:42.879Z,95.90
2019-02-19T07:07:13.199Z,95.97
2019-02-19T07:09:43.490Z,88.50
2019-02-19T07:12:13.800Z,92.97
2019-02-19T07:14:44.105Z,80.90
2019-02-19T07:17:15.935Z,82.73
2019-02-19T07:19:46.362Z,82.03
2019-02-19T07:22:16.664Z,76.67
2019-02-19T07:24:46.947Z,84.47
2019-02-19T07:27:17.245Z,103.40
2019-02-19T07:29:47.543Z,121.30
2019-02-19T07:32:17.825Z,91.87
2019-02-19T07:34:48.120Z,80.73
2019-02-19T07:37:18.391Z,80.57
2019-02-19T07:39:48.743Z,77.10
2019-02-19T07:42:19.041Z,69.33
2019-02-19T07:44:49.310Z,71.97
2019-02-19T07:47:24.687Z,67.87
2019-02-19T07:49:51.610Z,63.10
2019-02-19T07:52:21.896Z,60.83
2019-02-19T07:54:52.171Z,63.37
2019-02-19T07:57:22.630Z,64.17
2019-02-19T07:59:52.944Z,54.43
2019-02-19T08:02:23.471Z,58.33
2019-02-19T08:04:53.927Z,58.07
2019-02-19T08:07:24.177Z,56.47
2019-02-19T08:09:54.504Z,52.83
2019-02-19T08:12:26.234Z,55.60
2019-02-19T08:14:57.653Z,59.67
2019-02-19T08:17:33.248Z,59.27
2019-02-19T08:20:01.622Z,57.57
2019-02-19T08:22:32.173Z,61.50
2019-02-19T08:25:02.473Z,54.40
2019-02-19T08:27:32.760Z,51.63
2019-02-19T08:30:03.079Z,55.17
2019-02-19T08:32:33.454Z,50.50
2019-02-19T08:35:03.765Z,46.13
2019-02-19T08:37:34.079Z,48.43
2019-02-19T08:40:05.017Z,47.90
2019-02-19T08:42:35.315Z,44.20
2019-02-19T08:45:07.533Z,49.93
2019-02-19T08:47:42.591Z,45.30
2019-02-19T08:50:10.883Z,48.40
2019-02-19T08:52:41.130Z,49.40
2019-02-19T08:55:11.419Z,57.67
2019-02-19T08:57:41.747Z,43.17
2019-02-19T09:00:12.152Z,48.03
2019-02-19T09:02:44.062Z,40.50
2019-02-19T09:05:14.378Z,51.73
2019-02-19T09:07:44.650Z,47.00
2019-02-19T09:10:15.316Z,42.73
2019-02-19T09:12:46.677Z,45.63
2019-02-19T09:15:16.953Z,41.23
2019-02-19T09:17:51.906Z,42.17
2019-02-19T09:20:20.407Z,36.37
2019-02-19T09:22:50.700Z,46.50
2019-02-19T09:25:21.034Z,39.83
2019-02-19T09:27:51.344Z,33.30
2019-02-19T09:30:21.651Z,40.03
2019-02-19T09:32:51.954Z,40.77
2019-02-19T09:35:23.748Z,37.53
2019-02-19T09:37:54.113Z,38.67
2019-02-19T09:40:24.393Z,33.50
2019-02-19T09:42:54.683Z,33.47
2019-02-19T09:45:24.990Z,33.83
2019-02-19T09:48:01.145Z,31.90
2019-02-19T09:50:27.259Z,33.63
2019-02-19T09:53:00.023Z,37.07
2019-02-19T09:55:29.627Z,38.87
2019-02-19T09:58:00.174Z,35.03
2019-02-19T10:00:30.519Z,33.37
2019-02-19T10:03:00.805Z,34.60
2019-02-19T10:05:31.200Z,33.33
2019-02-19T10:08:01.495Z,38.33
2019-02-19T10:10:31.798Z,36.13
2019-02-19T10:13:02.133Z,31.73
2019-02-19T10:15:32.464Z,33.20
2019-02-19T10:18:09.885Z,33.13
2019-02-19T10:20:34.777Z,31.30
2019-02-19T10:23:05.077Z,29.20
2019-02-19T10:25:35.388Z,31.13
2019-02-19T10:28:05.687Z,30.93
2019-02-19T10:30:35.978Z,29.87
2019-02-19T10:33:06.283Z,34.47
2019-02-19T10:35:36.577Z,34.00
2019-02-19T10:38:08.489Z,29.47
2019-02-19T10:40:38.807Z,33.10
2019-02-19T10:43:09.081Z,30.87
2019-02-19T10:45:39.390Z,33.37
2019-02-19T10:48:09.683Z,31.53
2019-02-19T10:50:40.154Z,30.47
2019-02-19T10:53:10.519Z,30.33
2019-02-19T10:55:40.807Z,30.30
2019-02-19T10:58:11.588Z,29.47
2019-02-19T11:00:42.346Z,30.77
2019-02-19T11:03:12.624Z,28.80
2019-02-19T11:05:42.947Z,30.77
2019-02-19T11:08:13.221Z,28.30
2019-02-19T11:10:43.540Z,24.40
2019-02-19T11:13:13.893Z,26.20
2019-02-19T11:15:45.280Z,25.83
2019-02-19T11:18:16.650Z,26.07
2019-02-19T11:20:46.974Z,26.10
2019-02-19T11:23:17.291Z,26.97
2019-02-19T11:25:49.146Z,25.90
2019-02-19T11:28:19.447Z,22.70
2019-02-19T11:30:49.728Z,24.27
2019-02-19T11:33:20.025Z,24.87
2019-02-19T11:35:50.326Z,23.97
2019-02-19T11:38:20.619Z,24.07
2019-02-19T11:40:51.000Z,27.23
2019-02-19T11:43:22.836Z,26.57
2019-02-19T11:45:53.138Z,22.63
2019-02-19T11:48:23.440Z,24.53
2019-02-19T11:50:54.000Z,24.33
2019-02-19T11:53:25.289Z,30.67
2019-02-19T11:55:55.596Z,23.50
2019-02-19T11:58:25.974Z,25.80
2019-02-19T12:00:56.297Z,27.63
2019-02-19T12:03:26.598Z,25.87
2019-02-19T12:05:58.564Z,23.37
2019-02-19T12:08:28.842Z,30.63
2019-02-19T12:10:59.157Z,33.57
2019-02-19T12:13:29.450Z,29.83
2019-02-19T12:15:59.766Z,25.63
2019-02-19T12:18:31.158Z,29.23
2019-02-19T12:21:01.455Z,33.03
2019-02-19T12:23:31.796Z,26.87
2019-02-19T12:26:02.102Z,26.33
2019-02-19T12:28:32.551Z,32.53
2019-02-19T12:31:02.876Z,27.30
2019-02-19T12:33:33.172Z,28.77
2019-02-19T12:36:03.511Z,29.13
2019-02-19T12:38:33.806Z,25.77
2019-02-19T12:41:04.138Z,25.87
2019-02-19T12:43:34.420Z,27.10
2019-02-19T12:46:04.701Z,27.93
2019-02-19T12:48:34.995Z,26.80
2019-02-19T12:51:05.299Z,44.67
2019-02-19T12:53:35.598Z,31.07
2019-02-19T12:56:05.865Z,43.13
2019-02-19T12:58:36.164Z,48.00
2019-02-19T13:01:06.461Z,27.23
2019-02-19T13:03:36.762Z,28.57
2019-02-19T13:06:07.076Z,27.37
2019-02-19T13:08:40.169Z,32.10
2019-02-19T13:11:10.501Z,27.27
2019-02-19T13:13:40.800Z,33.50
2019-02-19T13:16:11.100Z,28.77
2019-02-19T13:18:41.395Z,35.87
2019-02-19T13:21:11.711Z,23.83
2019-02-19T13:23:42.024Z,26.47
2019-02-19T13:26:12.340Z,30.23
2019-02-19T13:28:42.634Z,24.87
2019-02-19T13:31:12.993Z,43.17
2019-02-19T13:33:43.310Z,23.47
2019-02-19T13:36:13.795Z,27.67
2019-02-19T13:38:45.483Z,25.17
2019-02-19T13:41:16.620Z,30.50
2019-02-19T13:43:46.917Z,24.23
2019-02-19T13:46:17.398Z,30.87
2019-02-19T13:48:47.697Z,26.10
2019-02-19T13:51:18.948Z,22.43
2019-02-19T13:54:07.089Z,25.80
2019-02-19T13:56:37.865Z,24.93
2019-02-19T13:59:08.829Z,27.17
2019-02-19T14:01:39.183Z,29.23
2019-02-19T14:04:09.501Z,30.77
2019-02-19T14:06:39.793Z,22.57
2019-02-19T14:09:10.105Z,33.70
2019-02-19T14:11:40.442Z,31.67
2019-02-19T14:14:15.361Z,38.53
2019-02-19T14:16:47.329Z,40.67
2019-02-19T14:19:21.367Z,44.17
2019-02-19T14:21:53.563Z,41.77
2019-02-19T14:24:26.496Z,39.87
2019-02-19T14:27:10.914Z,43.07
2019-02-19T14:29:49.847Z,41.90
2019-02-19T14:32:21.782Z,40.33
2019-02-19T14:34:56.437Z,38.77
2019-02-19T14:37:30.088Z,34.37
2019-02-19T14:40:10.504Z,32.60
2019-02-19T14:42:50.528Z,29.20
2019-02-19T14:45:29.804Z,31.57
2019-02-19T14:48:19.179Z,36.23
2019-02-19T14:51:01.586Z,35.20
2019-02-19T14:53:39.488Z,41.67
2019-02-19T14:56:14.126Z,34.60
2019-02-19T14:58:46.120Z,41.13
2019-02-19T15:01:18.055Z,42.97
2019-02-19T15:03:59.280Z,38.43
2019-02-19T15:06:37.244Z,36.13
2019-02-19T15:09:21.151Z,37.53
2019-02-19T15:11:53.104Z,38.70
2019-02-19T15:14:43.421Z,36.70
2019-02-19T15:19:58.880Z,32.70
2019-02-19T15:22:30.966Z,31.43
2019-02-19T15:25:11.794Z,31.37
2019-02-19T15:27:47.491Z,33.93
2019-02-19T15:30:22.435Z,38.17
2019-02-19T15:32:59.983Z,39.73
2019-02-19T15:35:50.136Z,36.70
2019-02-19T15:38:23.025Z,36.30
2019-02-19T15:40:55.942Z,33.33
2019-02-19T15:43:28.646Z,27.90
2019-02-19T15:46:00.746Z,29.40
2019-02-19T15:48:33.089Z,26.47
2019-02-19T15:51:06.991Z,30.23
2019-02-19T15:53:39.193Z,34.87
2019-02-19T15:56:27.544Z,29.67
2019-02-19T15:59:11.867Z,28.90
2019-02-19T16:01:43.776Z,32.27
2019-02-19T16:04:32.577Z,32.17
2019-02-19T16:07:08.031Z,33.93
2019-02-19T16:09:49.041Z,33.73
2019-02-19T16:12:24.686Z,41.90
2019-02-19T16:14:59.656Z,33.23
2019-02-19T16:17:31.942Z,36.33
2019-02-19T16:20:15.746Z,35.47
2019-02-19T16:22:47.869Z,33.17
2019-02-19T16:25:38.171Z,36.17
2019-02-19T16:28:10.196Z,37.80
2019-02-19T16:30:51.023Z,36.23
2019-02-19T16:33:31.938Z,34.53
2019-02-19T16:36:06.514Z,38.57
2019-02-19T16:38:41.600Z,39.90
2019-02-19T16:41:19.816Z,36.73
2019-02-19T16:43:57.916Z,38.43
2019-02-19T16:46:31.670Z,38.23
2019-02-19T16:49:03.666Z,34.83
2019-02-19T16:51:40.744Z,36.17
2019-02-19T16:54:28.867Z,36.33
2019-02-19T16:57:06.382Z,34.43
2019-02-19T16:59:51.375Z,32.93
2019-02-19T17:02:26.147Z,29.93
2019-02-19T17:05:13.316Z,28.97
2019-02-19T17:07:45.279Z,29.83
2019-02-19T17:10:17.507Z,846.97
2019-02-19T17:13:04.560Z,196.83
2019-02-19T17:15:45.462Z,337.20
2019-02-19T17:18:26.395Z,406.63
2019-02-19T17:21:07.251Z,266.10
2019-02-19T17:23:39.223Z,208.33
2019-02-19T17:26:27.597Z,164.30
2019-02-19T17:29:02.674Z,205.70
2019-02-19T17:31:46.923Z,118.53
2019-02-19T17:34:36.694Z,138.13
2019-02-19T17:37:25.626Z,67.90
2019-02-19T17:40:06.382Z,76.47
2019-02-19T17:42:47.342Z,39.10
2019-02-19T17:45:19.549Z,106.23
2019-02-19T17:48:03.777Z,125.03
2019-02-19T17:50:38.683Z,60.77
2019-02-19T17:53:11.034Z,57.20
2019-02-19T17:55:43.041Z,61.37
2019-02-19T17:58:15.261Z,54.87
2019-02-19T18:00:53.242Z,53.97
2019-02-19T18:03:25.155Z,40.97
2019-02-19T18:05:57.242Z,35.60
2019-02-19T18:08:41.554Z,30.50
2019-02-19T18:11:18.022Z,41.77
2019-02-19T18:13:54.159Z,31.10
2019-02-19T18:16:41.520Z,37.27
2019-02-19T18:19:11.816Z,29.17
2019-02-19T18:21:42.119Z,31.43
2019-02-19T18:24:12.426Z,30.47
2019-02-19T18:26:44.813Z,35.87
2019-02-19T18:29:17.649Z,33.93
2019-02-19T18:31:47.945Z,35.07
2019-02-19T18:34:18.300Z,32.20
2019-02-19T18:36:48.594Z,36.47
2019-02-19T18:39:20.968Z,34.93
2019-02-19T18:41:51.287Z,33.57
2019-02-19T18:44:21.576Z,31.77
2019-02-19T18:46:51.960Z,33.60
2019-02-19T18:49:22.244Z,30.93
2019-02-19T18:51:52.558Z,30.10
2019-02-19T18:54:22.867Z,27.23
2019-02-19T18:56:53.221Z,29.00
2019-02-19T18:59:23.999Z,29.07
2019-02-19T19:01:54.276Z,26.80
2019-02-19T19:04:24.566Z,28.77
2019-02-19T19:06:55.207Z,25.40
2019-02-19T19:09:25.509Z,26.57
2019-02-19T19:11:55.946Z,25.80
2019-02-19T19:14:26.404Z,27.57
2019-02-19T19:16:56.897Z,25.90
2019-02-19T19:19:27.544Z,22.13
2019-02-19T19:21:58.458Z,20.77
2019-02-19T19:24:28.769Z,19.53
2019-02-19T19:26:59.495Z,19.63
2019-02-19T19:29:30.034Z,19.77
2019-02-19T19:32:00.359Z,17.07
2019-02-19T19:34:30.672Z,17.33
2019-02-19T19:37:02.359Z,18.30
2019-02-19T19:39:32.720Z,17.37
2019-02-19T19:42:03.012Z,16.17
2019-02-19T19:44:34.845Z,16.80
2019-02-19T19:47:05.417Z,17.07
2019-02-19T19:49:35.995Z,16.57
2019-02-19T19:52:06.485Z,16.03
2019-02-19T19:54:37.162Z,18.67
2019-02-19T19:57:08.167Z,17.07
2019-02-19T19:59:38.922Z,17.10
2019-02-19T20:02:09.629Z,21.47
2019-02-19T20:04:41.018Z,24.73
2019-02-19T20:07:12.919Z,30.63
2019-02-19T20:09:44.193Z,38.70
2019-02-19T20:12:15.529Z,33.27
2019-02-19T20:14:47.095Z,30.00
2019-02-19T20:17:19.946Z,32.07
2019-02-19T20:19:51.157Z,28.03
2019-02-19T20:22:21.666Z,24.43
2019-02-19T20:24:53.062Z,24.53
2019-02-19T20:27:24.681Z,27.33
2019-02-19T20:29:55.944Z,24.07
2019-02-19T20:32:27.868Z,25.47
2019-02-19T20:34:59.025Z,24.63
2019-02-19T20:37:29.715Z,26.10
2019-02-19T20:42:26.544Z,19.23
2019-02-19T20:44:57.057Z,22.57
2019-02-19T20:47:27.438Z,27.83
2019-02-19T20:49:59.045Z,20.87
2019-02-19T20:52:29.767Z,22.13
2019-02-19T20:55:04.255Z,23.93
2019-02-19T20:57:34.835Z,24.80
2019-02-19T21:00:13.025Z,23.23
2019-02-19T21:02:46.560Z,22.73
2019-02-19T21:05:17.166Z,24.33
2019-02-19T21:07:47.791Z,25.17
2019-02-19T21:10:19.559Z,22.83
2019-02-19T21:12:49.869Z,23.10
2019-02-19T21:15:21.098Z,22.77
2019-02-19T21:17:52.031Z,19.80
2019-02-19T21:20:22.403Z,22.30
2019-02-19T21:22:52.793Z,20.37
2019-02-19T21:25:30.835Z,20.73
2019-02-19T21:27:55.178Z,26.77
2019-02-19T21:30:25.686Z,21.37
2019-02-19T21:32:55.961Z,20.70
2019-02-19T21:35:26.226Z,22.93
2019-02-19T21:37:57.175Z,21.27
2019-02-19T21:40:27.541Z,21.37
2019-02-19T21:42:57.811Z,21.77
2019-02-19T21:45:29.421Z,18.20
2019-02-19T21:48:00.193Z,21.00
2019-02-19T21:50:30.729Z,21.87
2019-02-19T21:53:01.279Z,21.37
2019-02-19T21:55:31.928Z,22.70
2019-02-19T21:58:02.362Z,22.80
2019-02-19T22:00:33.098Z,22.47
2019-02-19T22:03:03.267Z,22.60
2019-02-19T22:05:33.630Z,21.20
2019-02-19T22:08:04.596Z,25.00
2019-02-19T22:10:35.040Z,22.87
2019-02-19T22:13:05.396Z,24.17
2019-02-19T22:15:35.713Z,24.63
2019-02-19T22:18:06.025Z,20.57
2019-02-19T22:20:47.191Z,24.70
2019-02-19T22:23:17.874Z,20.03
2019-02-19T22:25:49.199Z,19.00
2019-02-19T22:28:19.445Z,20.50
2019-02-19T22:30:52.839Z,16.97
2019-02-19T22:33:24.611Z,20.40
2019-02-19T22:35:54.923Z,28.40
2019-02-19T22:38:25.194Z,22.53
2019-02-19T22:40:55.622Z,20.13
2019-02-19T22:43:26.795Z,24.90
2019-02-19T22:45:57.089Z,22.50
2019-02-19T22:48:27.377Z,21.10
2019-02-19T22:50:57.892Z,26.27
2019-02-19T22:53:38.943Z,23.93
2019-02-19T22:56:22.831Z,22.67
2019-02-19T22:58:53.110Z,25.03
2019-02-19T23:01:26.120Z,24.93
2019-02-19T23:03:56.604Z,35.27
2019-02-19T23:06:26.920Z,31.80
2019-02-19T23:08:57.263Z,26.50
2019-02-19T23:11:27.666Z,20.80
2019-02-19T23:13:57.952Z,20.37
2019-02-19T23:16:29.938Z,19.93
2019-02-19T23:19:00.230Z,23.30
2019-02-19T23:21:30.619Z,19.57
2019-02-19T23:24:00.911Z,23.27
2019-02-19T23:26:32.409Z,22.80
2019-02-19T23:29:02.757Z,19.67
2019-02-19T23:31:33.032Z,18.30
2019-02-19T23:34:03.311Z,16.57
2019-02-19T23:36:41.165Z,35.73
2019-02-19T23:39:11.454Z,45.23
2019-02-19T23:41:41.859Z,29.23
2019-02-19T23:44:12.284Z,22.87
2019-02-19T23:46:43.987Z,20.43
2019-02-19T23:49:15.436Z,21.73
2019-02-19T23:51:45.737Z,16.77
2019-02-19T23:54:16.012Z,14.03
2019-02-19T23:56:46.383Z,16.40
2019-02-19T23:59:16.681Z,19.10
